Time;durP1;ratioP1;P1;durP2;ratioP2;P2;SDS_P1;SDS_P2;PMS_P1;PMS_P2;Temp;Humidity;BMP_temperature;BMP_pressure;BME280_temperature;BME280_humidity;BME280_pressure;Samples;Min_cycle;Max_cycle;Signal;HPM_P1;HPM_P2
2023/10/23 00:01:06;;;;;;;10.80;7.20;;;;;;;54.21;7.74;100224.34;107615;1310;21833;-78
2023/10/23 00:03:56;;;;;;;10.90;7.30;;;;;;;54.28;7.78;100223.66;108067;1307;21937;-78
2023/10/23 00:06:58;;;;;;;9.70;7.10;;;;;;;54.27;7.79;100227.14;108126;1303;21885;-82
2023/10/23 00:10:08;;;;;;;8.10;6.20;;;;;;;54.31;7.73;100229.64;108494;1299;21804;-80
2023/10/23 00:14:05;;;;;;;11.60;6.90;;;;;;;54.43;7.71;100224.09;109389;1291;21836;-79
2023/10/23 00:17:33;;;;;;;9.20;5.90;;;;;;;54.38;7.83;100228.65;109798;1291;22312;-81
2023/10/23 00:20:39;;;;;;;12.30;7.20;;;;;;;54.34;7.72;100228.39;109463;1294;22766;-80
2023/10/23 00:23:46;;;;;;;;;;;;;;;54.39;7.60;100237.70;109397;1291;21960;-80
2023/10/23 00:27:18;;;;;;;8.90;7.00;;;;;;;54.49;7.64;100235.09;109355;1295;21807;-81
2023/10/23 00:29:56;;;;;;;9.40;6.70;;;;;;;54.38;7.73;100241.41;109251;1295;21940;-78
2023/10/23 00:32:48;;;;;;;12.80;2.80;;;;;;;54.30;7.78;100246.95;109051;1294;21853;-81
2023/10/23 00:35:37;;;;;;;9.90;5.90;;;;;;;53.99;7.89;100231.36;109123;1295;21832;-80
2023/10/23 00:38:32;;;;;;;;;;;;;;;54.18;7.69;100238.36;109175;1295;21937;-82
2023/10/23 00:41:33;;;;;;;6.90;4.80;;;;;;;54.48;7.58;100228.14;109142;1295;22628;-79
2023/10/23 00:44:38;;;;;;;;;;;;;;;;;;;;;
2023/10/23 00:48:16;;;;;;;7.80;5.60;;;;;;;54.45;7.76;100232.11;109595;1292;21939;-80
2023/10/23 00:51:27;;;;;;;9.10;6.20;;;;;;;54.35;7.56;100238.48;109547;1288;21824;-79
2023/10/23 00:54:36;;;;;;;8.50;5.70;;;;;;;54.18;7.59;100238.08;109918;1288;21786;-79
2023/10/23 00:57:38;;;;;;;;;;;;;;;;;;;;;
2023/10/23 01:00:37;;;;;;;8.00;6.20;;;;;;;54.12;7.56;100244.52;109873;1288;21842;-81
2023/10/23 01:04:04;;;;;;;11.20;6.40;;;;;;;54.15;7.85;100249.91;109901;1288;21817;-82
2023/10/23 01:07:21;;;;;;;8.70;6.60;;;;;;;54.22;7.61;100246.23;109303;1288;21858;-81
2023/10/23 01:10:35;;;;;;;13.30;6.70;;;;;;;54.16;7.63;100238.45;109289;1295;22015;-81
2023/10/23 01:14:04;;;;;;;;;;;;;;;;;;;;;
2023/10/23 01:17:57;;;;;;;10.30;6.40;;;;;;;54.14;7.63;100247.13;109385;1295;21859;-81
2023/10/23 01:21:07;;;;;;;6.70;5.10;;;;;;;54.09;7.64;100244.26;108977;1299;21871;-79
2023/10/23 01:24:24;;;;;;;10.70;6.20;;;;;;;54.02;7.71;100244.45;108546;1303;21979;-79
2023/10/23 01:27:25;;;;;;;10.70;6.30;;;;;;;54.07;7.66;100245.56;108547;1303;21858;-79
2023/10/23 01:30:54;;;;;;;;;;;;;;;;;;;;;
2023/10/23 01:33:55;;;;;;;10.80;6.00;;;;;;;53.91;7.82;100248.98;108441;1304;22298;-81
2023/10/23 01:37:07;;;;;;;11.50;6.40;;;;;;;53.81;7.87;100248.53;107953;1309;21846;-80
2023/10/23 01:40:01;;;;;;;11.90;6.20;;;;;;;53.91;7.71;100251.16;108164;1306;21872;-81
2023/10/23 01:43:09;;;;;;;13.50;5.40;;;;;;;53.92;7.76;100250.80;108206;1298;21807;-80
2023/10/23 01:46:19;;;;;;;15.20;5.50;;;;;;;54.00;7.65;100251.27;109026;1291;22345;-82
2023/10/23 01:49:07;;;;;;;11.00;5.70;;;;;;;53.95;7.71;100244.98;108958;1297;21939;-81
2023/10/23 01:51:57;;;;;;;12.70;5.60;;;;;;;53.97;7.60;100250.06;109271;1297;21810;-80
2023/10/23 01:55:05;;;;;;;8.10;5.60;;;;;;;53.75;7.85;100237.20;109215;1294;21828;-81
2023/10/23 01:57:44;;;;;;;10.00;5.70;;;;;;;54.04;7.73;100241.71;109405;1295;21829;-80
2023/10/23 02:00:27;;;;;;;5.60;5.00;;;;;;;53.89;7.81;100249.02;109232;1294;22353;-80
2023/10/23 02:03:08;;;;;;;7.40;5.00;;;;;;;53.93;7.67;100245.38;108944;1299;21867;-79
2023/10/23 02:05:56;;;;;;;9.60;5.80;;;;;;;53.82;7.75;100244.59;108397;1303;21880;-80
2023/10/23 02:08:47;;;;;;;11.70;7.10;;;;;;;53.81;7.87;100240.48;108609;1301;21880;-80
2023/10/23 02:11:46;;;;;;;9.20;5.60;;;;;;;53.86;7.68;100253.30;108485;1300;21811;-81
2023/10/23 02:15:10;;;;;;;9.50;5.30;;;;;;;53.97;7.63;100249.35;108591;1301;22332;-80
2023/10/23 02:29:03;;;;;;;;;;;;;;;;;;;;;
2023/10/23 02:32:42;;;;;;;8.50;4.90;;;;;;;53.86;7.72;100235.88;107317;1271;3250494;-80
2023/10/23 02:36:22;;;;;;;;;;;;;;;;;;;;;
2023/10/23 02:40:17;;;;;;;;;;;;;;;;;;;;;
2023/10/23 02:43:52;;;;;;;10.00;6.30;;;;;;;54.06;7.49;100229.44;110258;1265;23040;-80
2023/10/23 02:47:26;;;;;;;8.10;5.10;;;;;;;53.76;7.62;100233.48;110143;1265;22769;-80
2023/10/23 02:51:00;;;;;;;11.70;6.40;;;;;;;53.86;7.67;100234.02;110864;1261;22109;-81
2023/10/23 02:54:38;;;;;;;;;;;;;;;;;;;;;
2023/10/23 03:00:58;;;;;;;12.50;6.50;;;;;;;53.81;7.77;100243.45;109203;1277;21970;-80
2023/10/23 03:04:44;;;;;;;;;;;;;;;;;;;;;
2023/10/23 03:08:10;;;;;;;14.90;6.10;;;;;;;53.90;7.66;100251.67;108837;1281;21996;-80
2023/10/23 03:15:14;;;;;;;8.40;4.90;;;;;;;53.97;7.71;100260.11;109168;1272;23633;-81
2023/10/23 03:22:51;;;;;;;6.80;5.40;;;;;;;53.70;7.83;100270.38;108752;1282;23644;-82
2023/10/23 03:26:01;;;;;;;8.10;5.60;;;;;;;53.52;7.78;100270.25;108367;1288;22797;-81
2023/10/23 03:29:17;;;;;;;8.50;5.20;;;;;;;53.44;7.72;100271.86;107963;1289;22488;-81
2023/10/23 03:32:16;;;;;;;9.90;5.40;;;;;;;53.46;7.87;100276.70;108145;1289;22788;-81
2023/10/23 03:35:10;;;;;;;19.30;17.20;;;;;;;53.43;7.90;100283.62;108306;1286;22442;-80
2023/10/23 03:41:25;;;;;;;;;;;;;;;;;;;;;
2023/10/23 03:44:47;;;;;;;8.20;5.30;;;;;;;53.70;7.79;100296.91;109146;1276;23318;-81
2023/10/23 03:48:13;;;;;;;;;;;;;;;;;;;;;
2023/10/23 03:52:05;;;;;;;;;;;;;;;;;;;;;
2023/10/23 03:55:42;;;;;;;10.90;5.00;;;;;;;53.66;7.70;100306.67;108651;1286;22067;-80
2023/10/23 03:58:35;;;;;;;;;;;;;;;;;;;;;
2023/10/23 04:01:55;;;;;;;13.70;5.90;;;;;;;53.53;7.75;100315.10;108880;1276;22009;-81
2023/10/23 04:04:51;;;;;;;7.30;4.70;;;;;;;53.56;7.65;100318.55;109372;1270;22083;-80
2023/10/23 04:07:47;;;;;;;9.20;5.20;;;;;;;53.36;7.71;100327.03;109701;1270;22005;-81
2023/10/23 04:11:26;;;;;;;11.30;5.70;;;;;;;53.48;7.80;100324.02;110096;1261;21961;-81
2023/10/23 04:14:34;;;;;;;;;;;;;;;53.56;7.72;100319.11;110543;1261;21958;-79
2023/10/23 04:17:14;;;;;;;11.90;6.60;;;;;;;53.83;7.61;100321.88;110665;1261;21966;-81
2023/10/23 04:20:24;;;;;;;9.90;5.90;;;;;;;53.42;7.63;100326.84;110050;1265;21970;-79
2023/10/23 04:23:03;;;;;;;8.80;6.40;;;;;;;53.16;7.87;100329.71;109574;1266;22005;-79
2023/10/23 04:25:58;;;;;;;10.30;6.10;;;;;;;53.18;8.00;100323.89;109808;1271;23034;-79
2023/10/23 04:29:54;;;;;;;9.50;6.30;;;;;;;53.35;7.72;100321.46;109904;1238;21919;31
2023/10/23 04:33:29;;;;;;;;;;;;;;;;;;;;;
2023/10/23 04:36:37;;;;;;;10.70;6.50;;;;;;;53.49;7.73;100322.40;110000;1268;21972;-80
2023/10/23 04:40:13;;;;;;;13.70;6.20;;;;;;;53.76;7.68;100316.94;109892;1274;24988;-80
2023/10/23 04:43:07;;;;;;;11.80;6.20;;;;;;;53.86;7.56;100313.52;109780;1274;22037;-79
2023/10/23 04:46:28;;;;;;;;;;;;;;;53.80;7.47;100314.76;110227;1247;21927;-80
2023/10/23 04:49:51;;;;;;;14.20;9.80;;;;;;;54.10;7.41;100317.77;111674;1261;21944;-78
2023/10/23 04:53:12;;;;;;;12.70;7.20;;;;;;;53.79;7.52;100319.48;110064;1266;25011;-78
2023/10/23 04:56:00;;;;;;;10.80;6.40;;;;;;;53.63;7.66;100326.50;109877;1268;21968;-80
2023/10/23 04:58:54;;;;;;;10.30;6.90;;;;;;;53.53;7.72;100328.54;109982;1268;23842;-79
2023/10/23 05:02:12;;;;;;;18.20;8.10;;;;;;;53.49;7.68;100332.44;109889;1268;22024;-78
2023/10/23 05:05:41;;;;;;;14.20;8.10;;;;;;;53.63;7.56;100331.06;109577;1272;21976;-81
2023/10/23 05:08:41;;;;;;;21.70;9.50;;;;;;;53.54;7.55;100330.77;109359;1275;21984;-78
2023/10/23 05:11:32;;;;;;;;;;;;;;;;;;;;;
2023/10/23 05:14:45;;;;;;;12.10;8.90;;;;;;;54.11;7.54;100338.21;108311;1286;22008;-80
2023/10/23 05:17:24;;;;;;;14.20;9.00;;;;;;;53.87;7.62;100344.23;108294;1286;22105;-79
2023/10/23 05:20:13;;;;;;;15.40;9.80;;;;;;;53.75;7.77;100351.21;108277;1286;21760;-79
2023/10/23 05:23:19;;;;;;;18.80;9.30;;;;;;;53.67;7.69;100355.73;108359;1286;23734;-78
2023/10/23 05:26:21;;;;;;;13.80;8.20;;;;;;;53.56;7.73;100360.14;108198;1286;22030;-79
2023/10/23 05:29:26;;;;;;;13.00;8.10;;;;;;;53.59;7.78;100370.14;108491;1283;23769;-78
2023/10/23 05:32:22;;;;;;;11.60;7.10;;;;;;;53.41;7.83;100368.23;108580;1279;22027;-78
2023/10/23 05:35:26;;;;;;;;;;;;;;;53.46;7.75;100370.48;108648;1280;23622;-78
2023/10/23 05:38:35;;;;;;;11.10;7.00;;;;;;;53.84;7.52;100371.43;108815;1276;23650;-78
2023/10/23 05:41:31;;;;;;;;;;;;;;;53.54;7.64;100378.65;108975;1276;22978;-83
2023/10/23 05:44:33;;;;;;;12.60;7.80;;;;;;;53.57;7.59;100385.84;109188;1276;21994;-78
2023/10/23 05:47:47;;;;;;;;;;;;;;;;;;;;;
2023/10/23 05:51:03;;;;;;;11.00;7.20;;;;;;;53.20;7.81;100391.34;108799;1274;21988;-76
2023/10/23 05:54:16;;;;;;;12.90;8.70;;;;;;;53.16;7.81;100396.86;108832;1278;22843;-77
2023/10/23 05:57:03;;;;;;;16.30;9.00;;;;;;;53.31;7.82;100400.64;108650;1278;22270;-77
2023/10/23 06:00:03;;;;;;;;;;;;;;;;;;;;;
2023/10/23 06:03:00;;;;;;;12.90;9.20;;;;;;;53.26;7.94;100409.46;109416;1271;23591;-75
2023/10/23 06:06:12;;;;;;;11.20;8.20;;;;;;;53.31;7.85;100410.23;109406;1270;21976;-77
2023/10/23 06:09:10;;;;;;;14.60;8.40;;;;;;;53.27;7.73;100413.42;109038;1275;21964;-77
2023/10/23 06:13:07;;;;;;;8.50;6.90;;;;;;;53.62;7.56;100415.39;108868;1277;22470;-76
2023/10/23 06:16:19;;;;;;;;;;;;;;;;;;;;;
2023/10/23 06:19:57;;;;;;;15.60;10.50;;;;;;;53.74;7.74;100413.58;108087;1288;21998;-78
2023/10/23 06:22:20;;;;;;;15.50;10.20;;;;;;;53.82;7.75;100413.55;107962;1288;22062;-76
2023/10/23 06:25:17;;;;;;;16.10;11.50;;;;;;;53.78;7.78;100420.20;108372;1284;21992;-77
2023/10/23 06:27:53;;;;;;;12.60;10.30;;;;;;;53.67;7.65;100422.29;108739;1280;21986;-76
2023/10/23 06:30:38;;;;;;;16.30;11.70;;;;;;;53.50;7.84;100432.60;108534;1280;21999;-76
2023/10/23 06:33:42;;;;;;;14.90;10.70;;;;;;;53.54;7.79;100435.63;108554;1280;22035;-76
2023/10/23 06:36:49;;;;;;;11.80;8.80;;;;;;;53.83;7.68;100435.02;108857;1273;23585;-77
2023/10/23 06:39:29;;;;;;;15.50;12.50;;;;;;;53.73;7.59;100439.05;109284;1273;23864;-77
2023/10/23 06:42:04;;;;;;;17.60;13.50;;;;;;;53.76;7.72;100434.45;109089;1273;23619;-78
2023/10/23 06:44:57;;;;;;;18.60;11.80;;;;;;;53.69;7.74;100436.16;109351;1273;21984;-78
2023/10/23 06:47:32;;;;;;;19.20;11.80;;;;;;;53.65;7.72;100441.42;109103;1275;22052;-78
2023/10/23 06:50:48;;;;;;;19.40;11.60;;;;;;;53.69;7.69;100437.82;109401;1270;21979;-78
2023/10/23 06:54:12;;;;;;;20.20;12.40;;;;;;;53.91;7.54;100437.27;108857;1272;23739;-79
2023/10/23 06:57:11;;;;;;;15.90;11.20;;;;;;;53.84;7.63;100436.45;108746;1278;23741;-79
2023/10/23 07:00:28;;;;;;;22.20;11.70;;;;;;;53.73;7.73;100437.23;108386;1286;23657;-78
2023/10/23 07:03:19;;;;;;;15.80;10.30;;;;;;;54.00;7.66;100433.57;108278;1286;21992;-78
2023/10/23 07:06:43;;;;;;;20.00;15.90;;;;;;;54.17;7.48;100433.95;108090;1288;22030;-79
2023/10/23 07:09:31;;;;;;;19.80;15.20;;;;;;;54.05;7.57;100437.96;107965;1288;22224;-77
2023/10/23 07:15:40;;;;;;;17.70;13.20;;;;;;;54.20;7.54;100434.84;108169;1287;22386;-78
2023/10/23 07:18:50;;;;;;;20.90;13.90;;;;;;;54.30;7.44;100441.85;108521;1280;23169;-79
2023/10/23 07:21:37;;;;;;;20.50;12.70;;;;;;;54.22;7.51;100445.73;108629;1281;23049;-77
2023/10/23 07:24:27;;;;;;;16.40;12.30;;;;;;;54.19;7.56;100449.97;107876;1290;22005;-78
2023/10/23 07:26:59;;;;;;;22.10;12.70;;;;;;;54.18;7.54;100450.17;107712;1290;21989;-78
2023/10/23 07:29:35;;;;;;;18.70;12.50;;;;;;;54.08;7.62;100453.98;107799;1287;23124;-77
2023/10/23 07:32:34;;;;;;;15.50;12.40;;;;;;;54.24;7.44;100456.82;107849;1287;22203;-76
2023/10/23 07:35:16;;;;;;;19.30;11.30;;;;;;;54.25;7.52;100456.69;108084;1287;24096;-76
2023/10/23 07:37:45;;;;;;;17.00;11.70;;;;;;;54.09;7.66;100457.61;108144;1286;22446;-77
2023/10/23 07:40:44;;;;;;;17.40;11.60;;;;;;;54.18;7.58;100462.84;108250;1285;21992;-77
2023/10/23 07:43:27;;;;;;;13.50;9.50;;;;;;;54.40;7.74;100455.66;108394;1281;22496;-78
2023/10/23 07:45:57;;;;;;;20.70;11.70;;;;;;;54.54;7.69;100455.34;108622;1281;22873;-79
2023/10/23 07:48:28;;;;;;;16.50;11.20;;;;;;;54.71;7.69;100456.52;108510;1280;21988;-77
2023/10/23 07:51:02;;;;;;;13.40;8.90;;;;;;;54.75;7.52;100456.55;108537;1280;24297;-77
2023/10/23 07:53:35;;;;;;;14.00;10.10;;;;;;;54.80;7.54;100456.13;108871;1273;23628;-77
2023/10/23 07:56:08;;;;;;;15.90;9.70;;;;;;;54.84;7.42;100457.35;109097;1273;21989;-77
2023/10/23 07:58:59;;;;;;;14.40;10.50;;;;;;;55.02;7.23;100459.96;108811;1278;21999;-76
2023/10/23 08:01:59;;;;;;;;;;;;;;;;;;;;;
2023/10/23 08:04:47;;;;;;;14.00;9.20;;;;;;;54.99;7.40;100463.86;108859;1278;23713;-76
2023/10/23 08:07:31;;;;;;;14.80;9.60;;;;;;;54.91;7.43;100466.58;108491;1282;23100;-77
2023/10/23 08:10:10;;;;;;;;;;;;;;;55.07;7.30;100468.17;108453;1282;22031;-77
2023/10/23 08:12:43;;;;;;;17.00;11.00;;;;;;;55.44;7.00;100470.95;108494;1282;23129;-77
2023/10/23 08:15:20;;;;;;;18.00;12.30;;;;;;;55.02;7.43;100475.36;108506;1282;24740;-77
2023/10/23 08:18:13;;;;;;;17.40;12.90;;;;;;;55.13;7.51;100473.42;108686;1278;22000;-76
2023/10/23 08:21:25;;;;;;;23.20;13.30;;;;;;;55.42;7.26;100476.88;108684;1278;23062;-79
2023/10/23 08:24:13;;;;;;;26.70;15.00;;;;;;;55.42;7.34;100474.95;108611;1278;21988;-78
2023/10/23 08:27:26;;;;;;;19.40;13.10;;;;;;;55.69;7.31;100469.41;109258;1273;22946;-77
2023/10/23 08:30:19;;;;;;;18.70;11.10;;;;;;;55.69;7.35;100468.95;109153;1273;21986;-77
2023/10/23 08:32:53;;;;;;;10.90;8.30;;;;;;;55.88;7.24;100468.70;109107;1273;21989;-80
2023/10/23 08:35:45;;;;;;;10.70;8.40;;;;;;;55.87;7.20;100468.77;109109;1273;22226;-76
2023/10/23 08:38:38;;;;;;;13.90;8.10;;;;;;;55.94;7.41;100465.55;108612;1274;22455;-77
2023/10/23 08:41:23;;;;;;;10.50;7.80;;;;;;;56.15;7.30;100462.30;108456;1283;22744;-79
2023/10/23 08:44:00;;;;;;;15.80;8.50;;;;;;;56.30;7.26;100458.27;108509;1284;22090;-77
2023/10/23 08:46:43;;;;;;;18.00;9.40;;;;;;;56.57;7.20;100456.43;108435;1284;23004;-79
2023/10/23 08:49:20;;;;;;;17.90;8.70;;;;;;;57.12;7.01;100453.14;108364;1283;23770;-77
2023/10/23 08:52:01;;;;;;;13.40;7.40;;;;;;;57.46;6.81;100454.66;108513;1283;23052;-77
2023/10/23 08:54:55;;;;;;;10.80;7.60;;;;;;;57.47;6.56;100454.45;108274;1286;22908;-78
2023/10/23 08:57:29;;;;;;;17.40;6.80;;;;;;;57.41;6.66;100457.30;108129;1287;22011;-78
2023/10/23 09:00:28;;;;;;;11.80;6.90;;;;;;;57.22;6.59;100458.95;108082;1289;23727;-78
2023/10/23 09:03:17;;;;;;;24.20;10.20;;;;;;;57.18;6.49;100459.37;107314;1294;21988;-78
2023/10/23 09:16:57;;;;;;;9.40;6.30;;;;;;;55.36;7.58;100473.71;108281;1280;548240;-77
2023/10/23 09:19:38;;;;;;;13.90;7.40;;;;;;;56.25;6.93;100473.70;107931;1266;3070293;-77
2023/10/23 09:22:12;;;;;;;11.90;5.90;;;;;;;56.73;6.76;100473.20;110355;1267;21965;-78
2023/10/23 09:24:50;;;;;;;14.40;6.60;;;;;;;56.71;6.84;100477.95;109666;1266;23016;-79
2023/10/23 09:27:22;;;;;;;10.10;6.00;;;;;;;56.83;6.93;100476.94;109995;1266;22982;-78
2023/10/23 09:30:05;;;;;;;11.00;6.50;;;;;;;56.95;6.85;100474.30;110205;1266;23763;-79
2023/10/23 09:32:40;;;;;;;8.70;5.10;;;;;;;57.15;6.55;100471.17;110089;1266;22960;-79
2023/10/23 09:35:20;;;;;;;11.20;6.10;;;;;;;57.36;6.50;100467.70;109481;1273;22130;-77
2023/10/23 09:37:50;;;;;;;9.70;5.50;;;;;;;57.22;6.61;100470.50;109774;1273;22965;-78
2023/10/23 09:40:19;;;;;;;14.90;7.80;;;;;;;57.27;6.63;100467.62;109527;1272;23017;-80
2023/10/23 09:43:00;;;;;;;11.20;6.10;;;;;;;57.41;6.63;100463.38;109694;1272;22320;-78
2023/10/23 09:45:40;;;;;;;14.00;8.80;;;;;;;57.79;6.61;100460.20;109276;1267;22014;-78
2023/10/23 09:48:11;;;;;;;12.40;6.80;;;;;;;57.73;6.33;100462.81;109629;1273;23066;-78
2023/10/23 09:50:44;;;;;;;10.70;6.60;;;;;;;57.58;6.42;100463.70;109647;1273;21975;-78
2023/10/23 09:53:17;;;;;;;14.50;8.60;;;;;;;57.35;6.44;100465.60;109081;1273;22036;-77
2023/10/23 09:55:54;;;;;;;12.50;6.50;;;;;;;57.24;6.51;100460.12;109524;1272;23023;-81
2023/10/23 09:58:25;;;;;;;9.20;5.60;;;;;;;57.26;6.68;100461.27;109219;1273;21977;-77
2023/10/23 10:01:08;;;;;;;12.80;7.00;;;;;;;57.68;6.63;100460.40;108958;1280;23615;-77
2023/10/23 10:03:48;;;;;;;8.60;5.30;;;;;;;57.76;6.43;100456.77;108900;1280;22044;-78
2023/10/23 10:06:31;;;;;;;9.10;5.00;;;;;;;57.81;6.43;100451.33;108699;1280;23781;-78
2023/10/23 10:09:12;;;;;;;7.60;4.90;;;;;;;57.95;6.36;100446.57;108748;1280;22001;-78
2023/10/23 10:11:54;;;;;;;11.50;5.40;;;;;;;58.10;6.38;100446.31;108828;1277;23034;-79
2023/10/23 10:14:28;;;;;;;8.70;5.70;;;;;;;58.41;6.34;100441.30;108442;1285;23131;-78
2023/10/23 10:17:00;;;;;;;9.80;4.60;;;;;;;58.42;6.18;100439.30;108618;1280;22007;-80
2023/10/23 10:19:31;;;;;;;;;;;;;;;58.32;6.03;100440.44;109880;1266;21973;-77
2023/10/23 10:22:20;;;;;;;10.40;5.80;;;;;;;58.87;6.05;100440.48;110505;1266;21978;-78
2023/10/23 10:24:54;;;;;;;10.40;5.80;;;;;;;58.71;6.04;100441.59;110351;1266;22065;-78
2023/10/23 10:27:30;;;;;;;10.70;5.70;;;;;;;58.53;6.20;100441.11;110597;1265;22003;-78
2023/10/23 10:30:13;;;;;;;10.60;6.00;;;;;;;58.72;6.05;100434.77;110090;1266;21976;-77
2023/10/23 10:32:55;;;;;;;10.00;5.40;;;;;;;59.20;5.86;100429.50;110474;1260;21989;-78
2023/10/23 10:35:50;;;;;;;10.20;5.60;;;;;;;59.85;5.76;100423.52;110823;1260;21970;-78
2023/10/23 10:38:31;;;;;;;8.90;4.60;;;;;;;60.50;5.74;100416.45;110585;1260;22295;-78
2023/10/23 10:41:33;;;;;;;8.10;4.90;;;;;;;60.75;5.46;100410.50;111044;1260;23602;-78
2023/10/23 10:47:15;;;;;;;9.70;4.30;;;;;;;60.02;5.27;100419.61;109673;1271;23706;-78
2023/10/23 10:49:51;;;;;;;10.50;4.60;;;;;;;59.76;5.43;100416.95;109270;1272;22047;-81
2023/10/23 10:53:07;;;;;;;15.40;5.60;;;;;;;59.49;5.47;100419.70;108995;1276;21990;-78
2023/10/23 10:56:35;;;;;;;10.20;4.60;;;;;;;59.88;5.36;100418.73;109006;1281;22473;-78
2023/10/23 10:59:23;;;;;;;9.70;4.70;;;;;;;59.43;5.64;100416.36;108496;1286;21994;-79
2023/10/23 11:02:08;;;;;;;9.80;4.60;;;;;;;59.24;5.66;100416.03;108466;1286;22005;-79
2023/10/23 11:04:39;;;;;;;9.40;3.80;;;;;;;59.08;5.66;100417.48;108372;1281;21990;-79
2023/10/23 11:07:08;;;;;;;10.30;4.20;;;;;;;58.81;5.80;100417.52;108878;1281;21981;-79
2023/10/23 11:09:51;;;;;;;12.00;5.70;;;;;;;58.67;5.91;100417.61;108697;1281;22001;-80
2023/10/23 11:12:21;;;;;;;10.40;4.70;;;;;;;58.64;5.79;100414.43;108562;1281;23068;-79
2023/10/23 11:14:50;;;;;;;10.10;4.10;;;;;;;58.66;5.69;100412.45;109143;1276;22961;-77
2023/10/23 11:17:22;;;;;;;15.20;7.20;;;;;;;58.52;5.77;100411.79;109457;1271;23810;-79
2023/10/23 11:19:55;;;;;;;11.40;6.80;;;;;;;58.58;5.96;100410.11;109533;1271;23599;-77
2023/10/23 11:22:25;;;;;;;11.00;4.60;;;;;;;58.50;5.99;100412.66;109586;1259;21975;-77
2023/10/23 11:24:58;;;;;;;10.30;4.10;;;;;;;58.56;5.94;100415.13;110090;1264;22050;-77
2023/10/23 11:27:31;;;;;;;22.40;13.60;;;;;;;58.63;5.88;100409.99;110116;1263;22191;-78
2023/10/23 11:30:00;;;;;;;12.50;7.10;;;;;;;58.45;5.95;100405.03;110483;1264;22816;-76
2023/10/23 11:32:35;;;;;;;9.90;7.20;;;;;;;58.72;5.87;100400.00;109138;1272;22049;-77
2023/10/23 11:35:12;;;;;;;9.30;4.20;;;;;;;58.79;6.00;100398.30;109487;1272;23737;-77
2023/10/23 11:37:42;;;;;;;6.80;3.80;;;;;;;58.72;5.93;100403.53;110301;1268;22006;-77
2023/10/23 11:40:21;;;;;;;7.90;3.40;;;;;;;58.56;5.78;100406.70;110279;1263;23719;-78
2023/10/23 11:42:55;;;;;;;6.60;3.40;;;;;;;58.47;5.76;100409.02;110237;1264;21984;-76
2023/10/23 11:45:24;;;;;;;7.60;3.70;;;;;;;58.45;5.86;100406.17;110327;1264;22743;-76
2023/10/23 11:47:53;;;;;;;9.70;5.80;;;;;;;58.40;5.86;100410.69;109403;1271;23744;-76
2023/10/23 11:50:26;;;;;;;23.70;8.80;;;;;;;58.46;5.78;100413.66;109793;1265;21949;-81
2023/10/23 11:52:57;;;;;;;14.00;7.60;;;;;;;58.47;5.86;100411.50;110180;1265;24481;-79
2023/10/23 11:55:46;;;;;;;11.40;5.50;;;;;;;58.36;5.98;100412.96;109965;1265;21970;-78
2023/10/23 11:58:31;;;;;;;12.90;4.90;;;;;;;58.52;6.04;100412.21;110801;1261;21971;-78
2023/10/23 12:01:03;;;;;;;8.80;4.20;;;;;;;58.44;6.05;100415.30;110887;1260;22142;-79
2023/10/23 12:03:56;;;;;;;10.00;4.50;;;;;;;58.41;5.94;100417.05;110691;1256;21987;-79
2023/10/23 12:06:41;;;;;;;7.10;3.30;;;;;;;58.44;5.76;100416.77;111116;1254;21957;-81
2023/10/23 12:09:17;;;;;;;9.10;4.70;;;;;;;58.27;5.87;100419.02;111190;1254;22009;-79
2023/10/23 12:12:14;;;;;;;8.20;5.00;;;;;;;58.27;5.92;100424.02;111152;1254;22115;-79
2023/10/23 12:15:13;;;;;;;10.20;4.70;;;;;;;58.48;5.89;100428.55;111572;1254;23011;-78
2023/10/23 12:18:32;;;;;;;9.40;4.80;;;;;;;58.60;5.71;100423.71;110884;1259;21979;-79
2023/10/23 12:22:06;;;;;;;;;;;;;;;;;;;;;
2023/10/23 12:25:05;;;;;;;14.50;5.70;;;;;;;58.58;5.65;100424.50;110109;1265;24194;-80
2023/10/23 12:28:09;;;;;;;9.50;5.10;;;;;;;58.38;5.66;100425.11;110131;1265;22011;-77
2023/10/23 12:31:16;;;;;;;9.50;3.50;;;;;;;58.16;5.74;100424.42;110018;1265;23690;-77
2023/10/23 12:34:35;;;;;;;11.70;4.50;;;;;;;58.15;5.62;100422.79;110288;1265;22013;-79
2023/10/23 12:37:39;;;;;;;11.80;4.30;;;;;;;58.07;5.73;100420.11;110798;1259;21966;-77
2023/10/23 12:41:10;;;;;;;10.10;4.30;;;;;;;57.82;5.97;100426.08;110241;1260;22719;-79
2023/10/23 12:44:31;;;;;;;;;;;;;;;;;;;;;
2023/10/23 12:47:30;;;;;;;10.40;5.90;;;;;;;57.90;5.86;100426.28;110302;1268;21973;-78
2023/10/23 12:50:44;;;;;;;13.10;8.40;;;;;;;58.00;5.84;100420.73;109980;1268;21976;-80
2023/10/23 12:54:09;;;;;;;;;;;;;;;;;;;;;
2023/10/23 12:57:02;;;;;;;17.00;10.00;;;;;;;57.92;5.89;100420.13;109434;1272;21976;-80
2023/10/23 12:59:40;;;;;;;20.10;8.50;;;;;;;57.82;5.84;100419.90;109359;1272;22731;-78
2023/10/23 13:03:13;;;;;;;19.80;12.50;;;;;;;58.29;5.88;100412.79;109671;1272;22634;-79
2023/10/23 13:06:46;;;;;;;17.20;10.20;;;;;;;58.63;5.70;100415.80;109383;1269;22152;-81
2023/10/23 13:13:45;;;;;;;13.70;6.20;;;;;;;58.58;5.63;100409.48;108982;1280;23805;-79
2023/10/23 13:16:55;;;;;;;12.80;5.50;;;;;;;58.40;5.71;100408.77;109131;1280;22739;-79
2023/10/23 13:23:35;;;;;;;10.60;4.70;;;;;;;58.60;5.62;100397.38;109402;1273;21976;-79
2023/10/23 13:26:59;;;;;;;9.60;4.10;;;;;;;58.44;5.63;100397.50;109524;1273;23007;-79
2023/10/23 13:33:20;;;;;;;;;;;;;;;;;;;;;
2023/10/23 13:36:54;;;;;;;10.60;4.40;;;;;;;58.07;5.65;100391.71;109427;1273;23687;-80
2023/10/23 13:39:46;;;;;;;19.80;10.10;;;;;;;58.13;5.75;100392.82;109323;1273;21983;-80
2023/10/23 13:43:32;;;;;;;15.50;6.20;;;;;;;58.40;5.60;100386.45;110001;1260;22975;-79
2023/10/23 13:47:36;;;;;;;9.70;5.30;;;;;;;58.36;5.80;100382.46;109742;1267;22077;-81
2023/10/23 13:50:50;;;;;;;;;;;;;;;;;;;;;
2023/10/23 13:54:16;;;;;;;15.60;5.60;;;;;;;58.38;5.76;100372.38;109156;1281;21980;-79
2023/10/23 13:56:59;;;;;;;9.10;4.00;;;;;;;58.26;5.77;100373.67;108803;1281;22197;-79
2023/10/23 14:00:08;;;;;;;6.60;3.30;;;;;;;58.02;5.80;100378.64;108798;1281;23052;-78
2023/10/23 14:03:10;;;;;;;7.80;4.30;;;;;;;57.89;5.70;100379.81;108401;1284;22017;-80
2023/10/23 14:06:20;;;;;;;10.90;5.20;;;;;;;57.75;5.77;100376.48;108912;1280;22743;-78
2023/10/23 14:09:29;;;;;;;8.70;4.50;;;;;;;57.89;5.85;100374.31;109655;1273;23601;-80
2023/10/23 14:12:45;;;;;;;;;;;;;;;;;;;;;
2023/10/23 14:16:31;;;;;;;8.50;4.10;;;;;;;57.73;5.73;100371.17;109392;1273;21993;-78
2023/10/23 14:19:46;;;;;;;12.20;5.20;;;;;;;57.43;5.89;100370.61;108533;1284;22460;-79
2023/10/23 14:23:00;;;;;;;;;;;;;;;;;;;;;
2023/10/23 14:25:52;;;;;;;7.40;5.10;;;;;;;57.37;6.08;100373.07;108971;1275;21983;-78
2023/10/23 14:28:45;;;;;;;11.80;6.10;;;;;;;57.08;6.22;100372.63;109551;1268;22613;-81
2023/10/23 14:31:52;;;;;;;11.50;4.50;;;;;;;57.23;6.13;100370.83;109608;1268;23688;-78
2023/10/23 14:35:22;;;;;;;15.30;3.50;;;;;;;57.22;6.06;100368.41;109524;1274;21980;-77
2023/10/23 14:38:32;;;;;;;14.10;5.40;;;;;;;57.27;6.16;100371.79;109736;1270;21974;-78
2023/10/23 14:41:41;;;;;;;16.10;7.30;;;;;;;57.19;6.29;100380.70;109771;1270;22075;-77
2023/10/23 14:45:03;;;;;;;15.30;10.00;;;;;;;57.23;6.19;100377.47;108800;1281;22033;-78
2023/10/23 14:48:05;;;;;;;19.20;12.70;;;;;;;57.21;6.19;100379.59;108580;1281;21994;-79
2023/10/23 14:50:54;;;;;;;19.00;12.30;;;;;;;57.12;6.20;100387.45;108528;1281;23811;-76
2023/10/23 14:53:49;;;;;;;17.20;12.30;;;;;;;57.07;6.34;100383.92;108944;1276;21995;-77
2023/10/23 14:56:35;;;;;;;18.20;11.10;;;;;;;57.36;6.14;100376.80;109666;1266;21770;-77
2023/10/23 15:00:04;;;;;;;17.80;9.80;;;;;;;57.34;6.13;100378.05;109912;1266;23609;-79
2023/10/23 15:02:51;;;;;;;21.10;11.60;;;;;;;57.18;6.25;100380.84;109915;1266;23594;-78
2023/10/23 15:06:17;;;;;;;17.00;11.50;;;;;;;57.07;6.27;100381.13;110254;1266;23699;-78
2023/10/23 15:09:05;;;;;;;19.60;9.90;;;;;;;56.93;6.22;100385.59;110101;1254;22564;-79
2023/10/23 15:12:11;;;;;;;21.80;13.40;;;;;;;57.05;6.28;100386.38;110303;1262;21969;-78
2023/10/23 15:15:08;;;;;;;23.50;15.70;;;;;;;57.02;6.40;100384.48;110497;1260;21978;-77
2023/10/23 15:17:57;;;;;;;23.20;15.30;;;;;;;57.04;6.37;100382.02;111040;1260;24535;-79
2023/10/23 15:20:49;;;;;;;24.20;17.90;;;;;;;56.95;6.35;100384.42;111173;1255;22150;-80